Time;durP1;ratioP1;P1;durP2;ratioP2;P2;SDS_P1;SDS_P2;PMS_P1;PMS_P2;Temp;Humidity;BMP_temperature;BMP_pressure;BME280_temperature;BME280_humidity;BME280_pressure;Samples;Min_cycle;Max_cycle;Signal;HPM_P1;HPM_P2
2023/10/03 00:00:49;;;;;;;15.38;11.82;;;18.80;99.90;;;;;;5061128;28;20289;-71
2023/10/03 00:03:17;;;;;;;13.43;11.68;;;18.80;99.90;;;;;;5067157;28;20201;-71
2023/10/03 00:05:45;;;;;;;12.60;11.00;;;18.80;99.90;;;;;;5064024;28;20210;-71
2023/10/03 00:08:14;;;;;;;13.68;10.95;;;18.80;99.90;;;;;;5066112;28;20670;-71
2023/10/03 00:10:41;;;;;;;15.65;12.05;;;18.80;99.90;;;;;;5061077;28;20365;-73
2023/10/03 00:13:08;;;;;;;16.48;12.70;;;18.80;99.90;;;;;;5068424;28;20221;-72
2023/10/03 00:15:39;;;;;;;16.35;12.25;;;18.80;99.90;;;;;;5065081;28;25959;-71
2023/10/03 00:18:06;;;;;;;17.38;11.90;;;18.80;99.90;;;;;;5064858;28;20733;-71
2023/10/03 00:20:33;;;;;;;13.25;11.32;;;18.70;99.90;;;;;;5064816;28;20746;-72
2023/10/03 00:23:00;;;;;;;14.98;11.48;;;18.60;99.90;;;;;;5066454;28;20257;-71
2023/10/03 00:25:30;;;;;;;16.65;12.80;;;18.60;99.90;;;;;;5067341;28;20202;-70
2023/10/03 00:27:59;;;;;;;15.05;11.25;;;18.60;99.90;;;;;;5059080;28;20290;-69
2023/10/03 00:30:28;;;;;;;15.02;11.98;;;18.70;99.90;;;;;;5061797;28;20289;-74
2023/10/03 00:32:57;;;;;;;15.02;11.95;;;18.70;99.90;;;;;;5061811;28;20675;-72
2023/10/03 00:35:26;;;;;;;15.45;12.40;;;18.70;99.90;;;;;;5063539;28;20287;-71
2023/10/03 00:37:54;;;;;;;14.43;11.20;;;18.60;99.90;;;;;;5060290;28;20223;-70
2023/10/03 00:40:27;;;;;;;13.43;11.18;;;18.60;99.90;;;;;;5065176;28;20629;-73
2023/10/03 00:42:58;;;;;;;13.73;10.75;;;18.60;99.90;;;;;;5064319;28;20190;-73
2023/10/03 00:45:26;;;;;;;16.05;11.98;;;18.60;99.90;;;;;;5087997;28;20250;-74
2023/10/03 00:47:54;;;;;;;13.85;11.45;;;18.50;99.90;;;;;;5069143;28;20225;-71
2023/10/03 00:50:25;;;;;;;14.07;10.85;;;18.50;99.90;;;;;;5065935;28;20199;-70
2023/10/03 00:52:55;;;;;;;13.07;10.85;;;18.50;99.90;;;;;;5061110;28;20225;-71
2023/10/03 00:55:25;;;;;;;13.93;11.05;;;18.50;99.90;;;;;;5065045;28;20546;-71
2023/10/03 00:58:02;;;;;;;14.32;10.85;;;18.60;99.90;;;;;;5062742;28;20283;-70
2023/10/03 01:00:31;;;;;;;15.60;11.13;;;18.60;99.90;;;;;;5062106;28;20209;-71
2023/10/03 01:02:58;;;;;;;16.73;12.88;;;18.60;99.90;;;;;;5060127;28;20201;-71
2023/10/03 01:05:25;;;;;;;16.67;12.00;;;18.60;99.90;;;;;;5065578;28;20236;-71
2023/10/03 01:07:52;;;;;;;15.18;11.60;;;18.60;99.90;;;;;;5068869;28;20241;-71
2023/10/03 01:10:20;;;;;;;14.40;11.32;;;18.60;99.90;;;;;;5059074;28;20293;-70
2023/10/03 01:12:49;;;;;;;14.25;11.55;;;18.50;99.90;;;;;;5062762;28;20305;-71
2023/10/03 01:15:22;;;;;;;14.52;11.18;;;18.50;99.90;;;;;;5061533;28;20289;-71
2023/10/03 01:17:57;;;;;;;14.80;11.30;;;18.50;99.90;;;;;;5063033;28;20232;-72
2023/10/03 01:20:25;;;;;;;15.20;11.75;;;18.50;99.90;;;;;;5058228;28;20209;-71
2023/10/03 01:22:55;;;;;;;14.10;11.20;;;18.40;99.90;;;;;;5061144;28;20206;-72
2023/10/03 01:25:27;;;;;;;15.65;11.52;;;18.40;99.90;;;;;;5064126;28;20696;-72
2023/10/03 01:27:54;;;;;;;16.83;12.18;;;18.30;99.90;;;;;;5065346;28;20357;-71
2023/10/03 01:30:21;;;;;;;13.85;11.40;;;18.30;99.90;;;;;;5061520;28;20796;-71
2023/10/03 01:32:53;;;;;;;14.32;11.85;;;18.30;99.90;;;;;;5064867;28;20225;-72
2023/10/03 01:35:22;;;;;;;17.15;12.68;;;18.30;99.90;;;;;;5064517;28;20305;-71
2023/10/03 01:37:49;;;;;;;16.25;12.32;;;18.20;99.90;;;;;;5066655;28;20226;-71
2023/10/03 01:40:16;;;;;;;17.02;12.57;;;18.20;99.90;;;;;;5060143;28;20198;-72
2023/10/03 01:42:46;;;;;;;15.65;11.95;;;18.20;99.90;;;;;;5066711;28;20281;-71
2023/10/03 01:45:15;;;;;;;15.02;11.30;;;18.20;99.90;;;;;;5064447;28;20748;-71
2023/10/03 01:47:45;;;;;;;17.30;13.00;;;18.10;99.90;;;;;;5066586;28;20194;-71
2023/10/03 01:50:13;;;;;;;15.45;11.85;;;18.10;99.90;;;;;;5065911;28;20198;-72
2023/10/03 01:52:41;;;;;;;16.77;12.93;;;18.10;99.90;;;;;;5062389;28;20253;-72
2023/10/03 01:55:10;;;;;;;15.55;12.23;;;18.10;99.90;;;;;;5064750;28;20311;-72
2023/10/03 01:57:38;;;;;;;16.05;12.65;;;18.10;99.90;;;;;;5063793;28;20202;-71
2023/10/03 02:00:19;;;;;;;16.73;11.75;;;18.10;99.90;;;;;;5066591;28;20209;-71
2023/10/03 02:02:46;;;;;;;16.38;11.25;;;18.10;99.90;;;;;;5056611;28;20190;-71
2023/10/03 02:05:14;;;;;;;16.27;12.43;;;18.10;99.90;;;;;;5061517;28;20241;-72
2023/10/03 02:07:42;;;;;;;17.38;12.77;;;18.00;99.90;;;;;;5061098;28;20225;-72
2023/10/03 02:10:12;;;;;;;18.33;13.30;;;18.00;99.90;;;;;;5062899;28;20281;-71
2023/10/03 02:12:44;;;;;;;15.15;12.13;;;18.00;99.90;;;;;;5067903;28;20275;-71
2023/10/03 02:15:14;;;;;;;16.45;12.48;;;18.00;99.90;;;;;;5064326;28;20202;-71
2023/10/03 02:17:41;;;;;;;17.65;12.90;;;18.00;99.90;;;;;;5064451;28;20206;-73
2023/10/03 02:20:15;;;;;;;17.55;12.43;;;17.90;99.90;;;;;;5066156;28;20218;-71
2023/10/03 02:22:42;;;;;;;17.17;12.20;;;17.90;99.90;;;;;;5061649;28;20198;-71
2023/10/03 02:25:10;;;;;;;16.63;12.18;;;17.90;99.90;;;;;;5064228;28;20198;-71
2023/10/03 02:27:37;;;;;;;19.15;12.98;;;17.80;99.90;;;;;;5067342;28;20296;-73
2023/10/03 02:30:12;;;;;;;16.63;11.57;;;17.80;99.90;;;;;;5063174;28;20204;-72
2023/10/03 02:32:41;;;;;;;18.23;12.80;;;17.80;99.90;;;;;;5065192;28;20209;-73
2023/10/03 02:35:09;;;;;;;16.25;12.15;;;17.70;99.90;;;;;;5063369;28;20213;-72
2023/10/03 02:37:37;;;;;;;17.00;12.77;;;17.70;99.90;;;;;;5066381;28;20288;-71
2023/10/03 02:40:07;;;;;;;18.77;12.30;;;17.70;99.90;;;;;;5067826;28;20206;-71
2023/10/03 02:42:37;;;;;;;19.35;13.00;;;17.60;99.90;;;;;;5060828;28;20207;-72
2023/10/03 02:45:06;;;;;;;16.45;12.75;;;17.60;99.90;;;;;;5068493;28;20186;-74
2023/10/03 02:47:34;;;;;;;18.52;12.40;;;17.60;99.90;;;;;;5088962;28;20228;-72
2023/10/03 02:50:02;;;;;;;17.30;12.65;;;17.50;99.90;;;;;;5071574;28;20210;-71
2023/10/03 02:52:29;;;;;;;18.55;13.38;;;17.50;99.90;;;;;;5065324;28;20216;-71
2023/10/03 02:54:56;;;;;;;18.77;13.07;;;17.50;99.90;;;;;;5069947;28;20206;-72
2023/10/03 02:57:24;;;;;;;17.23;12.77;;;17.50;99.90;;;;;;5065155;28;20220;-72
2023/10/03 02:59:51;;;;;;;16.30;12.40;;;17.50;99.90;;;;;;5063514;28;20210;-72
2023/10/03 03:02:18;;;;;;;17.33;12.88;;;17.40;99.90;;;;;;5058307;28;20199;-73
2023/10/03 03:04:48;;;;;;;16.77;12.30;;;17.50;99.90;;;;;;5066468;28;20242;-71
2023/10/03 03:07:18;;;;;;;18.40;12.00;;;17.40;99.90;;;;;;5060528;28;20715;-72
2023/10/03 03:09:45;;;;;;;17.15;12.43;;;17.40;99.90;;;;;;5063109;28;20222;-71
2023/10/03 03:12:13;;;;;;;16.17;12.05;;;17.40;99.90;;;;;;5057173;28;20302;-71
2023/10/03 03:14:40;;;;;;;19.33;13.32;;;17.40;99.90;;;;;;5063871;28;20245;-72
2023/10/03 03:17:13;;;;;;;19.02;13.35;;;17.40;99.90;;;;;;5074610;28;20564;-71
2023/10/03 03:19:41;;;;;;;18.67;13.07;;;17.40;99.90;;;;;;5076898;28;20226;-75
2023/10/03 03:22:09;;;;;;;17.30;12.75;;;17.40;99.90;;;;;;5073170;28;20209;-71
2023/10/03 03:24:37;;;;;;;17.27;12.10;;;17.40;99.90;;;;;;5062555;28;20230;-71
2023/10/03 03:27:11;;;;;;;17.33;12.98;;;17.40;99.90;;;;;;5061903;28;20266;-73
2023/10/03 03:29:47;;;;;;;17.45;13.23;;;17.40;99.90;;;;;;5063163;28;20248;-72
2023/10/03 03:32:15;;;;;;;18.40;12.88;;;17.40;99.90;;;;;;5065074;28;20225;-72
2023/10/03 03:34:45;;;;;;;17.55;13.13;;;17.40;99.90;;;;;;5062386;28;20219;-71
2023/10/03 03:37:22;;;;;;;18.00;12.98;;;17.40;99.90;;;;;;5059684;28;20206;-71
2023/10/03 03:39:54;;;;;;;17.05;12.55;;;17.40;99.90;;;;;;5063541;28;20263;-72
2023/10/03 03:42:22;;;;;;;18.98;12.07;;;17.40;99.90;;;;;;5064063;28;20285;-72
2023/10/03 03:44:49;;;;;;;18.20;13.18;;;17.40;99.90;;;;;;5067491;28;20243;-72
2023/10/03 03:47:18;;;;;;;17.63;12.75;;;17.30;99.90;;;;;;5058550;28;20894;-71
2023/10/03 03:49:46;;;;;;;18.05;12.10;;;17.20;99.90;;;;;;5061710;28;20225;-70
2023/10/03 03:52:16;;;;;;;18.13;13.15;;;17.20;99.90;;;;;;5060356;28;20247;-73
2023/10/03 03:54:43;;;;;;;17.75;13.32;;;17.20;99.90;;;;;;5068389;28;20903;-73
2023/10/03 03:57:12;;;;;;;17.80;12.98;;;17.10;99.90;;;;;;5061756;28;20202;-73
2023/10/03 03:59:39;;;;;;;17.20;12.88;;;17.10;99.90;;;;;;5065794;28;20225;-72
2023/10/03 04:02:09;;;;;;;19.95;13.75;;;17.10;99.90;;;;;;5059124;28;20199;-71
2023/10/03 04:04:35;;;;;;;15.93;12.05;;;17.10;99.90;;;;;;5061317;28;20683;-72
2023/10/03 04:07:03;;;;;;;19.63;13.27;;;17.10;99.90;;;;;;5067186;28;20198;-72
2023/10/03 04:09:30;;;;;;;17.27;13.10;;;17.10;99.90;;;;;;5063342;28;20776;-72
2023/10/03 04:11:58;;;;;;;19.70;12.70;;;17.10;99.90;;;;;;5062012;28;20208;-72
2023/10/03 04:14:27;;;;;;;17.92;12.07;;;17.10;99.90;;;;;;5061161;28;20257;-72
2023/10/03 04:16:54;;;;;;;18.00;12.43;;;17.10;99.90;;;;;;5060885;28;20708;-71
2023/10/03 04:19:22;;;;;;;19.85;13.25;;;17.10;99.90;;;;;;5060006;28;20226;-72
2023/10/03 04:21:50;;;;;;;19.00;13.48;;;17.10;99.90;;;;;;5065024;28;20229;-72
2023/10/03 04:24:17;;;;;;;18.77;14.00;;;17.10;99.90;;;;;;5064241;28;20606;-72
2023/10/03 04:26:44;;;;;;;18.95;13.48;;;17.10;99.90;;;;;;5069480;28;20201;-72
2023/10/03 04:29:13;;;;;;;18.10;13.82;;;17.00;99.90;;;;;;5065105;28;20287;-72
2023/10/03 04:31:41;;;;;;;17.83;13.10;;;17.00;99.90;;;;;;5066649;28;20574;-71
2023/10/03 04:34:11;;;;;;;19.38;14.07;;;17.00;99.90;;;;;;5064203;28;20284;-71
2023/10/03 04:36:38;;;;;;;17.40;13.43;;;17.00;99.90;;;;;;5066878;28;20715;-71
2023/10/03 04:39:05;;;;;;;16.23;12.50;;;17.00;99.90;;;;;;5060657;28;20217;-72
2023/10/03 04:41:33;;;;;;;21.10;13.80;;;17.00;99.90;;;;;;5066133;28;20202;-71
2023/10/03 04:44:02;;;;;;;19.05;12.75;;;17.00;99.90;;;;;;5064116;28;21224;-71
2023/10/03 04:46:29;;;;;;;17.73;13.27;;;17.00;99.90;;;;;;5070085;28;20191;-72
2023/10/03 04:48:57;;;;;;;18.15;13.30;;;16.90;99.90;;;;;;5091218;28;20289;-72
2023/10/03 04:51:24;;;;;;;17.15;12.63;;;16.90;99.90;;;;;;5063177;28;20263;-71
2023/10/03 04:53:51;;;;;;;17.35;13.00;;;16.90;99.90;;;;;;5064381;28;20912;-73
2023/10/03 04:56:18;;;;;;;17.50;13.30;;;16.80;99.90;;;;;;5068446;28;20202;-73
2023/10/03 04:58:45;;;;;;;18.70;13.35;;;16.80;99.90;;;;;;5063943;28;20309;-72
2023/10/03 05:01:13;;;;;;;17.98;12.73;;;16.70;99.90;;;;;;5064074;28;20199;-71
2023/10/03 05:03:39;;;;;;;18.25;12.88;;;16.70;99.90;;;;;;5065712;28;20293;-72
2023/10/03 05:06:10;;;;;;;19.42;13.88;;;16.70;99.90;;;;;;5066308;28;20202;-71
2023/10/03 05:08:37;;;;;;;16.92;12.18;;;16.80;99.90;;;;;;5066016;28;20229;-73
2023/10/03 05:11:06;;;;;;;19.17;13.27;;;16.70;99.90;;;;;;5064249;28;20233;-71
2023/10/03 05:13:33;;;;;;;20.17;13.82;;;16.80;99.90;;;;;;5058647;28;20837;-73
2023/10/03 05:16:00;;;;;;;15.88;12.60;;;16.80;99.90;;;;;;5063755;28;20222;-72
2023/10/03 05:18:29;;;;;;;19.83;14.00;;;16.80;99.90;;;;;;5064209;28;20249;-72
2023/10/03 05:20:59;;;;;;;18.83;12.88;;;16.80;99.90;;;;;;5062744;28;20205;-73
2023/10/03 05:23:28;;;;;;;18.38;13.13;;;16.80;99.90;;;;;;5064491;28;20198;-70
2023/10/03 05:25:55;;;;;;;19.00;12.45;;;16.80;99.90;;;;;;5064257;28;20232;-72
2023/10/03 05:28:22;;;;;;;17.02;12.23;;;16.80;99.90;;;;;;5065094;28;20308;-71
2023/10/03 05:30:50;;;;;;;18.60;13.30;;;16.80;99.90;;;;;;5069657;28;20205;-72
2023/10/03 05:33:17;;;;;;;16.42;12.02;;;16.80;99.90;;;;;;5065560;28;20202;-72
2023/10/03 05:35:46;;;;;;;20.23;13.68;;;16.80;99.90;;;;;;5069739;28;20198;-74
2023/10/03 05:38:13;;;;;;;18.65;13.25;;;16.80;99.90;;;;;;5068906;28;20218;-73
2023/10/03 05:40:43;;;;;;;18.35;13.48;;;16.80;99.90;;;;;;5063893;28;20210;-72
2023/10/03 05:43:11;;;;;;;18.90;12.88;;;16.90;99.90;;;;;;5062778;28;20202;-71
2023/10/03 05:45:39;;;;;;;20.10;13.52;;;16.90;99.90;;;;;;5065317;28;20202;-73
2023/10/03 05:48:06;;;;;;;19.85;13.48;;;16.90;99.90;;;;;;5052009;28;20226;-73
2023/10/03 05:50:34;;;;;;;21.00;13.82;;;16.90;99.90;;;;;;5048164;28;20210;-71
2023/10/03 05:53:01;;;;;;;17.65;12.35;;;17.00;99.90;;;;;;5054723;28;20341;-73
2023/10/03 05:55:28;;;;;;;20.52;14.07;;;17.00;99.90;;;;;;5044628;28;20657;-73
2023/10/03 05:57:57;;;;;;;19.33;12.45;;;17.00;99.90;;;;;;5044380;28;20271;-72
2023/10/03 06:00:24;;;;;;;16.30;12.13;;;17.10;99.90;;;;;;5041288;28;20750;-72
2023/10/03 06:02:51;;;;;;;17.52;12.68;;;17.10;99.90;;;;;;5042549;28;20291;-72
2023/10/03 06:05:18;;;;;;;19.60;13.27;;;17.10;99.90;;;;;;5044054;28;20339;-70
2023/10/03 06:07:45;;;;;;;22.60;13.13;;;17.10;99.90;;;;;;5045280;28;20423;-72
2023/10/03 06:10:13;;;;;;;17.10;12.48;;;17.10;99.90;;;;;;5042204;28;20206;-72
2023/10/03 06:12:40;;;;;;;18.33;12.68;;;17.20;99.90;;;;;;5043427;28;20339;-73
2023/10/03 06:15:12;;;;;;;20.42;13.25;;;17.20;99.90;;;;;;5045715;28;20252;-72
2023/10/03 06:17:40;;;;;;;17.17;12.27;;;17.30;99.90;;;;;;5044375;28;20202;-71
2023/10/03 06:20:10;;;;;;;18.60;13.38;;;17.30;99.90;;;;;;5049193;28;20288;-70
2023/10/03 06:22:39;;;;;;;20.27;13.35;;;17.40;99.90;;;;;;5062270;28;20210;-71
2023/10/03 06:25:07;;;;;;;18.27;12.73;;;17.40;99.90;;;;;;5055627;28;20568;-72
2023/10/03 06:27:34;;;;;;;20.20;13.10;;;17.40;99.90;;;;;;5060463;28;20214;-72
2023/10/03 06:30:01;;;;;;;18.08;12.88;;;17.50;99.90;;;;;;5064995;28;20247;-72
2023/10/03 06:32:29;;;;;;;22.25;12.90;;;17.50;99.90;;;;;;5060754;28;20202;-73
2023/10/03 06:34:56;;;;;;;22.80;14.15;;;17.70;99.90;;;;;;5066773;28;20213;-72
2023/10/03 06:37:23;;;;;;;18.75;13.20;;;18.10;99.90;;;;;;5063289;28;20263;-71
2023/10/03 06:39:50;;;;;;;17.92;13.68;;;18.40;99.90;;;;;;5062486;28;20239;-73
2023/10/03 06:42:18;;;;;;;20.80;14.48;;;18.50;99.90;;;;;;5086978;28;20190;-72
2023/10/03 06:44:45;;;;;;;26.10;16.48;;;18.60;99.90;;;;;;5083295;28;20194;-72
2023/10/03 06:47:12;;;;;;;23.20;15.70;;;18.80;99.90;;;;;;5075496;28;20199;-71
2023/10/03 06:49:41;;;;;;;21.13;15.73;;;19.00;99.90;;;;;;5090590;28;20226;-74
2023/10/03 06:52:08;;;;;;;20.13;14.52;;;19.20;99.90;;;;;;5080884;28;20842;-71
2023/10/03 06:54:35;;;;;;;21.70;14.98;;;19.50;99.90;;;;;;5070545;28;20237;-74
2023/10/03 06:57:03;;;;;;;20.85;14.95;;;19.70;99.90;;;;;;5065841;28;20194;-72
2023/10/03 06:59:33;;;;;;;22.42;15.57;;;19.90;99.90;;;;;;5064369;28;20612;-71
2023/10/03 07:01:59;;;;;;;21.55;15.35;;;20.10;99.90;;;;;;5064448;28;20671;-71
2023/10/03 07:04:28;;;;;;;23.65;15.95;;;20.40;99.90;;;;;;5066245;28;20264;-72
2023/10/03 07:06:56;;;;;;;23.30;16.05;;;20.60;99.90;;;;;;5062172;28;20199;-70
2023/10/03 07:09:23;;;;;;;25.20;16.60;;;20.70;99.90;;;;;;5063644;28;20237;-71
2023/10/03 07:11:50;;;;;;;23.92;15.95;;;21.00;99.90;;;;;;5067617;28;20202;-74
2023/10/03 07:14:17;;;;;;;25.15;16.02;;;21.10;99.90;;;;;;5058448;28;20217;-72
2023/10/03 07:16:46;;;;;;;23.42;16.27;;;21.20;99.90;;;;;;5059375;28;20206;-72
2023/10/03 07:19:14;;;;;;;26.45;17.35;;;21.30;99.90;;;;;;5056444;28;20233;-72
2023/10/03 07:21:41;;;;;;;24.23;16.63;;;21.40;99.90;;;;;;5066591;28;20281;-71
2023/10/03 07:24:09;;;;;;;25.00;17.10;;;21.40;99.90;;;;;;5066047;28;20206;-72
2023/10/03 07:26:37;;;;;;;28.45;17.77;;;21.40;99.90;;;;;;5061435;28;20206;-73
2023/10/03 07:29:04;;;;;;;27.13;16.58;;;21.50;99.90;;;;;;5058475;28;20226;-72
2023/10/03 07:31:33;;;;;;;26.55;16.77;;;21.50;99.90;;;;;;5064431;28;20258;-72
2023/10/03 07:34:00;;;;;;;25.60;17.60;;;21.50;99.90;;;;;;5064262;28;20562;-75
2023/10/03 07:36:27;;;;;;;27.17;16.85;;;21.70;99.90;;;;;;5061718;28;20651;-76
2023/10/03 07:38:54;;;;;;;24.98;16.50;;;21.60;99.90;;;;;;5061688;28;20751;-74
2023/10/03 07:41:22;;;;;;;26.05;16.80;;;21.50;99.90;;;;;;5064776;28;20259;-72
2023/10/03 07:43:52;;;;;;;26.92;17.08;;;21.80;99.90;;;;;;5057937;28;20774;-73
2023/10/03 07:46:23;;;;;;;25.00;16.77;;;22.00;99.90;;;;;;5064330;28;20280;-71
2023/10/03 07:48:52;;;;;;;27.25;17.50;;;22.00;99.90;;;;;;5059266;28;20229;-71
2023/10/03 07:51:20;;;;;;;25.38;17.27;;;21.90;99.90;;;;;;5067319;28;20875;-70
2023/10/03 07:53:51;;;;;;;25.70;17.60;;;21.90;99.90;;;;;;5057563;28;20202;-69
2023/10/03 07:56:24;;;;;;;25.52;16.85;;;22.00;99.90;;;;;;5067303;28;20213;-70
2023/10/03 07:58:56;;;;;;;28.40;18.10;;;22.00;99.90;;;;;;5066140;28;20232;-70
2023/10/03 08:01:24;;;;;;;25.50;17.10;;;22.30;99.90;;;;;;5065732;28;20254;-70
2023/10/03 08:03:53;;;;;;;27.92;18.13;;;22.70;99.90;;;;;;5069680;28;20772;-72
2023/10/03 08:06:22;;;;;;;26.30;16.92;;;22.90;99.90;;;;;;5059874;28;20276;-70
2023/10/03 08:08:52;;;;;;;26.67;17.88;;;23.00;99.90;;;;;;5066340;28;20275;-71
2023/10/03 08:11:19;;;;;;;24.90;16.25;;;23.00;99.90;;;;;;5065762;28;20205;-72
2023/10/03 08:13:46;;;;;;;24.00;17.33;;;23.00;99.90;;;;;;5064354;28;20770;-73
2023/10/03 08:16:15;;;;;;;27.27;18.23;;;23.10;99.90;;;;;;5062605;28;20881;-73
2023/10/03 08:18:46;;;;;;;25.08;18.08;;;23.10;99.90;;;;;;5064377;28;20228;-72
2023/10/03 08:21:13;;;;;;;25.77;17.88;;;22.90;99.90;;;;;;5062160;28;20843;-72
2023/10/03 08:23:40;;;;;;;24.55;16.48;;;23.00;99.90;;;;;;5064883;28;20277;-71
2023/10/03 08:26:07;;;;;;;23.77;16.90;;;23.10;99.90;;;;;;5061858;28;20212;-72
2023/10/03 08:28:35;;;;;;;24.98;17.20;;;23.00;99.90;;;;;;5060668;28;20366;-73
2023/10/03 08:31:06;;;;;;;27.30;16.45;;;23.00;99.90;;;;;;5061858;28;20202;-74
2023/10/03 08:33:37;;;;;;;26.73;17.42;;;23.00;99.90;;;;;;5059532;28;20210;-71
2023/10/03 08:36:14;;;;;;;26.65;17.30;;;23.10;99.90;;;;;;5054796;28;20311;-74
2023/10/03 08:38:43;;;;;;;27.23;17.10;;;23.20;99.90;;;;;;5060611;28;20225;-72
2023/10/03 08:41:16;;;;;;;31.45;19.55;;;23.40;99.90;;;;;;5059510;28;20213;-74
2023/10/03 08:43:44;;;;;;;26.63;18.10;;;23.40;99.90;;;;;;5060946;28;20213;-71
2023/10/03 08:46:15;;;;;;;27.35;17.20;;;23.50;99.90;;;;;;5064345;28;20695;-72
2023/10/03 08:48:44;;;;;;;29.02;17.95;;;23.60;99.90;;;;;;5062459;28;20233;-72
2023/10/03 08:51:13;;;;;;;26.58;17.15;;;23.60;99.90;;;;;;5080458;28;20194;-74
2023/10/03 08:53:40;;;;;;;24.95;16.85;;;23.80;99.90;;;;;;5075071;28;20727;-74
2023/10/03 08:56:08;;;;;;;22.27;15.98;;;24.00;99.90;;;;;;5062935;28;20284;-73
2023/10/03 08:58:35;;;;;;;24.88;16.60;;;24.20;99.90;;;;;;5062958;28;20222;-72
2023/10/03 09:01:03;;;;;;;25.23;16.58;;;24.40;99.90;;;;;;5056691;28;20874;-75
2023/10/03 09:03:46;;;;;;;25.80;17.23;;;24.40;99.90;;;;;;5050821;28;20279;-72
2023/10/03 09:06:19;;;;;;;24.63;17.08;;;24.40;99.90;;;;;;5038535;28;20268;-72
2023/10/03 09:08:47;;;;;;;24.95;17.10;;;24.40;99.90;;;;;;5036673;28;20233;-73
2023/10/03 09:11:14;;;;;;;24.02;16.80;;;24.60;99.90;;;;;;5038471;28;20745;-74
2023/10/03 09:13:45;;;;;;;24.35;16.33;;;24.80;99.90;;;;;;5045422;28;20494;-72
2023/10/03 09:16:14;;;;;;;23.52;16.13;;;25.00;99.90;;;;;;5057199;28;21007;-72
2023/10/03 09:18:42;;;;;;;25.10;17.17;;;25.30;99.90;;;;;;5055322;28;20228;-74
2023/10/03 09:21:15;;;;;;;25.80;17.77;;;25.30;99.90;;;;;;5060694;28;20253;-74
2023/10/03 09:24:12;;;;;;;23.55;16.33;;;25.40;99.90;;;;;;5052413;28;20206;-72
2023/10/03 09:26:47;;;;;;;23.23;16.45;;;25.40;99.90;;;;;;5057776;28;20672;-72
2023/10/03 09:29:18;;;;;;;26.65;17.52;;;25.50;99.90;;;;;;5054501;28;20221;-74
2023/10/03 09:31:47;;;;;;;28.08;18.10;;;25.60;99.90;;;;;;5054199;28;20709;-74
2023/10/03 09:34:17;;;;;;;23.63;16.00;;;25.70;99.90;;;;;;5052604;28;20206;-72
2023/10/03 09:36:44;;;;;;;25.63;17.50;;;25.50;99.90;;;;;;5051534;28;20639;-72
2023/10/03 09:39:20;;;;;;;25.77;17.65;;;25.40;99.90;;;;;;5054765;28;20324;-74
2023/10/03 09:41:54;;;;;;;23.60;16.25;;;25.40;99.90;;;;;;5054931;28;20289;-73
2023/10/03 09:44:29;;;;;;;23.45;16.65;;;25.30;99.90;;;;;;5057007;28;20225;-72
2023/10/03 09:47:00;;;;;;;21.40;15.43;;;25.30;99.90;;;;;;5052172;28;20212;-71
2023/10/03 09:49:36;;;;;;;24.77;16.40;;;25.50;99.90;;;;;;5046120;28;20222;-73
2023/10/03 09:52:07;;;;;;;22.92;15.93;;;25.80;99.90;;;;;;5057028;28;20201;-72
2023/10/03 09:54:36;;;;;;;25.35;16.42;;;26.00;99.90;;;;;;5054416;28;20209;-73
2023/10/03 09:57:15;;;;;;;26.02;17.73;;;26.00;99.90;;;;;;5057614;28;20209;-74
2023/10/03 09:59:45;;;;;;;23.95;16.63;;;25.80;99.90;;;;;;5059799;28;20217;-72
2023/10/03 10:02:14;;;;;;;23.17;15.57;;;25.90;99.90;;;;;;5055315;28;20320;-73
2023/10/03 10:04:42;;;;;;;25.85;17.08;;;26.00;99.90;;;;;;5057156;28;20205;-72
2023/10/03 10:07:16;;;;;;;27.10;18.58;;;26.00;99.90;;;;;;5053366;28;20201;-75
2023/10/03 10:09:57;;;;;;;24.90;16.70;;;25.90;99.90;;;;;;5059707;28;20217;-75
2023/10/03 10:12:23;;;;;;;23.08;16.70;;;25.80;99.90;;;;;;5081627;28;20550;-74
2023/10/03 10:15:17;;;;;;;24.90;17.13;;;25.70;99.90;;;;;;5074191;28;20207;-75
2023/10/03 10:17:49;;;;;;;23.42;16.65;;;25.80;99.90;;;;;;5055737;28;20263;-73
2023/10/03 10:20:20;;;;;;;23.95;16.00;;;26.10;99.90;;;;;;5050263;28;20206;-75
2023/10/03 10:23:20;;;;;;;22.83;16.58;;;26.20;99.90;;;;;;5047111;28;20266;-78
2023/10/03 10:25:58;;;;;;;24.50;16.10;;;26.30;99.90;;;;;;5046725;28;20578;-75
2023/10/03 10:28:27;;;;;;;24.90;17.10;;;26.40;99.90;;;;;;5050048;28;20225;-74
2023/10/03 10:31:24;;;;;;;23.00;16.10;;;26.40;99.90;;;;;;5056569;28;20210;-73
2023/10/03 10:34:06;;;;;;;22.23;15.43;;;26.20;99.90;;;;;;5053004;28;20232;-74
2023/10/03 10:36:56;;;;;;;22.90;15.73;;;25.70;99.90;;;;;;5052538;28;20282;-75
2023/10/03 10:39:23;;;;;;;22.02;15.25;;;25.70;99.90;;;;;;5051747;28;20805;-73
2023/10/03 10:42:10;;;;;;;24.60;17.33;;;25.70;99.90;;;;;;5057224;28;20592;-72
2023/10/03 10:44:39;;;;;;;22.33;16.50;;;26.00;99.90;;;;;;5054607;28;20670;-72
2023/10/03 10:47:06;;;;;;;23.90;16.25;;;26.10;99.90;;;;;;5053447;28;20196;-73
2023/10/03 10:49:56;;;;;;;22.35;16.23;;;26.00;99.90;;;;;;5048467;28;20573;-75
2023/10/03 10:52:23;;;;;;;25.67;16.95;;;25.90;99.90;;;;;;5063370;28;20190;-76
2023/10/03 10:54:50;;;;;;;24.95;16.63;;;26.00;99.90;;;;;;5068341;28;20660;-73
2023/10/03 10:57:19;;;;;;;24.42;16.40;;;25.90;99.90;;;;;;5057009;28;20769;-73
2023/10/03 10:59:46;;;;;;;22.95;16.35;;;25.90;99.90;;;;;;5051307;28;20232;-73
2023/10/03 11:02:21;;;;;;;24.25;16.80;;;26.00;99.90;;;;;;5047002;28;20605;-72
2023/10/03 11:04:54;;;;;;;23.83;17.25;;;26.20;99.90;;;;;;5051674;28;20215;-72
2023/10/03 11:07:22;;;;;;;25.17;16.35;;;26.30;99.90;;;;;;5053846;28;20285;-72
2023/10/03 11:09:50;;;;;;;25.08;16.48;;;26.40;99.90;;;;;;5053452;28;20312;-72
2023/10/03 11:12:25;;;;;;;24.52;17.33;;;26.80;99.90;;;;;;5060092;28;20301;-72
2023/10/03 11:14:52;;;;;;;28.27;18.77;;;26.90;99.90;;;;;;5058880;28;20255;-72
2023/10/03 11:17:19;;;;;;;26.40;17.88;;;26.70;99.90;;;;;;5058889;28;20264;-73
2023/10/03 11:19:47;;;;;;;25.88;18.52;;;26.80;99.90;;;;;;5057575;28;20222;-72
2023/10/03 11:22:15;;;;;;;23.33;16.95;;;26.60;99.90;;;;;;5055519;28;20198;-74
2023/10/03 11:24:43;;;;;;;25.95;18.15;;;26.30;99.90;;;;;;5058900;28;20234;-71
2023/10/03 11:27:21;;;;;;;23.60;16.90;;;25.90;99.90;;;;;;5055227;28;20475;-72
2023/10/03 11:29:50;;;;;;;24.67;16.88;;;26.00;99.90;;;;;;5059941;28;20221;-72
2023/10/03 11:32:24;;;;;;;25.98;16.98;;;26.20;99.90;;;;;;5067217;28;20206;-72
2023/10/03 11:34:52;;;;;;;26.48;17.95;;;26.50;99.90;;;;;;5066484;28;20668;-73
2023/10/03 11:37:30;;;;;;;22.90;16.80;;;26.70;99.90;;;;;;5065807;28;20214;-72
2023/10/03 11:40:09;;;;;;;24.00;16.90;;;26.80;99.90;;;;;;5065025;28;20284;-72
2023/10/03 11:42:45;;;;;;;24.45;16.88;;;27.00;99.90;;;;;;5064863;28;20281;-73
2023/10/03 11:45:18;;;;;;;23.55;16.27;;;26.90;99.90;;;;;;5066476;28;20247;-72
2023/10/03 11:47:57;;;;;;;23.67;16.63;;;26.90;99.90;;;;;;5067094;28;20282;-72
2023/10/03 11:50:25;;;;;;;24.73;16.90;;;27.00;99.90;;;;;;5066599;28;20201;-72
2023/10/03 11:52:52;;;;;;;23.05;16.63;;;26.80;99.90;;;;;;5068068;28;20679;-72
2023/10/03 11:55:19;;;;;;;23.08;16.55;;;26.80;99.90;;;;;;5066117;28;20292;-72
2023/10/03 11:57:46;;;;;;;23.05;15.65;;;26.70;99.90;;;;;;5066174;28;20244;-72
2023/10/03 12:00:15;;;;;;;22.85;16.10;;;26.50;99.90;;;;;;5064678;28;20199;-72
2023/10/03 12:02:45;;;;;;;21.80;15.57;;;26.40;99.90;;;;;;5065244;28;20194;-73
2023/10/03 12:05:12;;;;;;;22.85;15.57;;;26.60;99.90;;;;;;5063596;28;20281;-72
2023/10/03 12:07:42;;;;;;;24.05;16.70;;;26.80;99.90;;;;;;5065432;28;20340;-73
2023/10/03 12:10:12;;;;;;;24.50;17.02;;;27.10;99.90;;;;;;5064242;28;20240;-72
2023/10/03 12:12:39;;;;;;;24.20;16.95;;;27.40;99.90;;;;;;5064687;28;20916;-72
2023/10/03 12:15:12;;;;;;;23.88;17.30;;;27.30;99.90;;;;;;5062118;28;20226;-72
2023/10/03 12:17:39;;;;;;;23.38;16.85;;;27.30;99.90;;;;;;5067659;28;20217;-72
2023/10/03 12:20:12;;;;;;;26.58;16.85;;;27.40;99.90;;;;;;5065605;28;20760;-71
2023/10/03 12:22:41;;;;;;;23.92;16.85;;;27.80;99.90;;;;;;5067405;28;20422;-72
2023/10/03 12:25:10;;;;;;;23.35;15.25;;;27.60;99.90;;;;;;5064501;28;20203;-72
2023/10/03 12:27:37;;;;;;;21.05;15.65;;;27.40;99.90;;;;;;5065854;28;20318;-73
2023/10/03 12:30:08;;;;;;;20.60;14.18;;;27.10;99.90;;;;;;5065124;28;20202;-73
2023/10/03 12:32:36;;;;;;;20.25;14.93;;;26.70;99.90;;;;;;5066197;28;20855;-73
2023/10/03 12:35:03;;;;;;;20.42;14.50;;;26.40;99.90;;;;;;5062208;28;20211;-72
2023/10/03 12:37:32;;;;;;;19.17;14.65;;;26.20;99.90;;;;;;5068514;28;20309;-71
2023/10/03 12:40:04;;;;;;;20.48;14.93;;;26.30;99.90;;;;;;5065081;28;20243;-72